ESSD/BLE METAR and TAF weather

Enter ICAO airport designator
Station Type Date Time Source
ESSD METAR 2022/11/30 17:50 UTC NOAA

ESSD 301750Z AUTO 15002KT 9999 OVC008/// 00/M00 Q1033


Station Type Date Time Source
ESSD Decoded METAR 2022/11/30 17:50 UTC NOAA

Borlange, Sweden (ESSD) 60-26N 015-31E 0M
Nov 30, 2022 - 12:50 PM EST / 2022.11.30 1750 UTC
Wind: from the SSE (150 degrees) at 2 MPH (2 KT):0
Visibility: greater than 7 mile(s):0
Sky conditions: overcast
Temperature: 32 F (0 C)
Dew Point: 32 F (0 C)
Relative Humidity: 100%
Pressure (altimeter): 30.50 in. Hg (1033 hPa)
ob: ESSD 301750Z AUTO 15002KT 9999 OVC008/// 00/M00 Q1033
cycle: 18

Station Type Date Time Source
ESSD TAF 2022/04/07 18:36 UTC NOAA

TAF
AMD ESSD 071731Z 0718/0806 CNL

Example: see airport list